Aviation Digital Data Service (ADDS)

Output produced by METARs form (0221 UTC 02 September 2015)
found at http://aviationweather.gov/adds/metars/
 
KOAJ 012320Z 0200/0224 00000KT P6SM SKC 
     FM020600 00000KT 4SM BR SCT005 
     FM021300 VRB03KT P6SM SCT250 AMD LTD TO CLD VIS AND WIND